sensor_id;sensor_type;location;lat;lon;timestamp;temperature;humidity
34766;DHT22;20984;43.508;1.504;2023-04-24T00:01:41;10.60;99.90
34766;DHT22;20984;43.508;1.504;2023-04-24T00:04:08;10.50;99.90
34766;DHT22;20984;43.508;1.504;2023-04-24T00:06:39;10.50;99.90
34766;DHT22;20984;43.508;1.504;2023-04-24T00:09:10;10.50;99.90
34766;DHT22;20984;43.508;1.504;2023-04-24T00:11:36;10.40;99.90
34766;DHT22;20984;43.508;1.504;2023-04-24T00:14:02;10.40;99.90
34766;DHT22;20984;43.508;1.504;2023-04-24T00:16:28;10.40;99.90
34766;DHT22;20984;43.508;1.504;2023-04-24T00:18:54;10.40;99.90
34766;DHT22;20984;43.508;1.504;2023-04-24T00:21:20;10.40;99.90
34766;DHT22;20984;43.508;1.504;2023-04-24T00:23:47;10.40;99.90
34766;DHT22;20984;43.508;1.504;2023-04-24T00:26:13;10.40;99.90
34766;DHT22;20984;43.508;1.504;2023-04-24T00:28:39;10.40;99.90
34766;DHT22;20984;43.508;1.504;2023-04-24T00:31:04;10.50;99.90
34766;DHT22;20984;43.508;1.504;2023-04-24T00:33:30;10.60;99.90
34766;DHT22;20984;43.508;1.504;2023-04-24T00:35:56;10.70;99.90
34766;DHT22;20984;43.508;1.504;2023-04-24T00:38:21;10.90;99.90
34766;DHT22;20984;43.508;1.504;2023-04-24T00:40:48;10.90;99.90
34766;DHT22;20984;43.508;1.504;2023-04-24T00:43:15;10.90;99.90
34766;DHT22;20984;43.508;1.504;2023-04-24T00:45:41;11.00;99.90
34766;DHT22;20984;43.508;1.504;2023-04-24T00:48:07;11.00;99.90
34766;DHT22;20984;43.508;1.504;2023-04-24T00:50:35;10.90;99.90
34766;DHT22;20984;43.508;1.504;2023-04-24T00:53:01;10.90;99.90
34766;DHT22;20984;43.508;1.504;2023-04-24T00:55:26;10.90;99.90
34766;DHT22;20984;43.508;1.504;2023-04-24T00:57:52;10.80;99.90
34766;DHT22;20984;43.508;1.504;2023-04-24T01:00:18;10.80;99.90
34766;DHT22;20984;43.508;1.504;2023-04-24T01:02:44;10.80;99.90
34766;DHT22;20984;43.508;1.504;2023-04-24T01:05:12;10.70;99.90
34766;DHT22;20984;43.508;1.504;2023-04-24T01:07:39;10.70;99.90
34766;DHT22;20984;43.508;1.504;2023-04-24T01:10:09;10.60;99.90
34766;DHT22;20984;43.508;1.504;2023-04-24T01:12:35;10.60;99.90
34766;DHT22;20984;43.508;1.504;2023-04-24T01:15:01;10.50;99.90
34766;DHT22;20984;43.508;1.504;2023-04-24T01:17:26;10.40;99.90
34766;DHT22;20984;43.508;1.504;2023-04-24T01:19:52;10.40;99.90
34766;DHT22;20984;43.508;1.504;2023-04-24T01:22:22;10.40;99.90
34766;DHT22;20984;43.508;1.504;2023-04-24T01:24:48;10.40;99.90
34766;DHT22;20984;43.508;1.504;2023-04-24T01:27:14;10.40;99.90
34766;DHT22;20984;43.508;1.504;2023-04-24T01:29:40;10.50;99.90
34766;DHT22;20984;43.508;1.504;2023-04-24T01:32:06;10.60;99.90
34766;DHT22;20984;43.508;1.504;2023-04-24T01:34:32;10.70;99.90
34766;DHT22;20984;43.508;1.504;2023-04-24T01:36:58;10.70;99.90
34766;DHT22;20984;43.508;1.504;2023-04-24T01:39:24;10.80;99.90
34766;DHT22;20984;43.508;1.504;2023-04-24T01:41:51;10.90;99.90
34766;DHT22;20984;43.508;1.504;2023-04-24T01:44:18;10.90;99.90
34766;DHT22;20984;43.508;1.504;2023-04-24T01:46:44;11.10;99.90
34766;DHT22;20984;43.508;1.504;2023-04-24T01:49:10;11.10;99.90
34766;DHT22;20984;43.508;1.504;2023-04-24T01:51:35;11.20;99.90
34766;DHT22;20984;43.508;1.504;2023-04-24T01:54:01;11.20;99.90
34766;DHT22;20984;43.508;1.504;2023-04-24T01:56:29;11.20;99.90
34766;DHT22;20984;43.508;1.504;2023-04-24T01:58:55;11.10;99.90
34766;DHT22;20984;43.508;1.504;2023-04-24T02:01:23;11.10;99.90
34766;DHT22;20984;43.508;1.504;2023-04-24T02:03:49;11.00;99.90
34766;DHT22;20984;43.508;1.504;2023-04-24T02:06:15;11.00;99.90
34766;DHT22;20984;43.508;1.504;2023-04-24T02:08:41;10.90;99.90
34766;DHT22;20984;43.508;1.504;2023-04-24T02:11:09;10.70;99.90
34766;DHT22;20984;43.508;1.504;2023-04-24T02:13:34;10.60;99.90
34766;DHT22;20984;43.508;1.504;2023-04-24T02:16:00;10.40;99.90
34766;DHT22;20984;43.508;1.504;2023-04-24T02:18:26;10.30;99.90
34766;DHT22;20984;43.508;1.504;2023-04-24T02:20:52;10.20;99.90
34766;DHT22;20984;43.508;1.504;2023-04-24T02:23:17;10.10;99.90
34766;DHT22;20984;43.508;1.504;2023-04-24T02:25:43;10.00;99.90
34766;DHT22;20984;43.508;1.504;2023-04-24T02:28:08;9.90;99.90
34766;DHT22;20984;43.508;1.504;2023-04-24T02:30:34;9.90;99.90
34766;DHT22;20984;43.508;1.504;2023-04-24T02:33:00;9.90;99.90
34766;DHT22;20984;43.508;1.504;2023-04-24T02:35:25;9.90;99.90
34766;DHT22;20984;43.508;1.504;2023-04-24T02:37:51;10.00;99.90
34766;DHT22;20984;43.508;1.504;2023-04-24T02:40:17;10.10;99.90
34766;DHT22;20984;43.508;1.504;2023-04-24T02:42:42;10.30;99.90
34766;DHT22;20984;43.508;1.504;2023-04-24T02:45:08;10.30;99.90
34766;DHT22;20984;43.508;1.504;2023-04-24T02:47:34;10.40;99.90
34766;DHT22;20984;43.508;1.504;2023-04-24T02:49:59;10.60;99.90
34766;DHT22;20984;43.508;1.504;2023-04-24T02:52:25;10.60;99.90
34766;DHT22;20984;43.508;1.504;2023-04-24T02:54:51;10.60;99.90
34766;DHT22;20984;43.508;1.504;2023-04-24T02:57:16;10.70;99.90
34766;DHT22;20984;43.508;1.504;2023-04-24T02:59:42;10.70;99.90
34766;DHT22;20984;43.508;1.504;2023-04-24T03:02:08;10.70;99.90
34766;DHT22;20984;43.508;1.504;2023-04-24T03:04:33;10.70;99.90
34766;DHT22;20984;43.508;1.504;2023-04-24T03:06:59;10.80;99.90
34766;DHT22;20984;43.508;1.504;2023-04-24T03:09:25;10.80;99.90
34766;DHT22;20984;43.508;1.504;2023-04-24T03:11:50;10.90;99.90
34766;DHT22;20984;43.508;1.504;2023-04-24T03:14:16;10.90;99.90
34766;DHT22;20984;43.508;1.504;2023-04-24T03:16:42;10.90;99.90
34766;DHT22;20984;43.508;1.504;2023-04-24T03:19:08;10.90;99.90
34766;DHT22;20984;43.508;1.504;2023-04-24T03:21:33;11.00;99.90
34766;DHT22;20984;43.508;1.504;2023-04-24T03:24:01;11.00;99.90
34766;DHT22;20984;43.508;1.504;2023-04-24T03:26:26;11.10;99.90
34766;DHT22;20984;43.508;1.504;2023-04-24T03:28:52;11.00;99.90
34766;DHT22;20984;43.508;1.504;2023-04-24T03:31:18;10.90;99.90
34766;DHT22;20984;43.508;1.504;2023-04-24T03:33:44;10.80;99.90
34766;DHT22;20984;43.508;1.504;2023-04-24T03:36:10;10.80;99.90
34766;DHT22;20984;43.508;1.504;2023-04-24T03:38:35;10.80;99.90
34766;DHT22;20984;43.508;1.504;2023-04-24T03:41:01;10.80;99.90
34766;DHT22;20984;43.508;1.504;2023-04-24T03:43:27;10.70;99.90
34766;DHT22;20984;43.508;1.504;2023-04-24T03:45:53;10.60;99.90
34766;DHT22;20984;43.508;1.504;2023-04-24T03:48:18;10.60;99.90
34766;DHT22;20984;43.508;1.504;2023-04-24T03:50:44;10.50;99.90
34766;DHT22;20984;43.508;1.504;2023-04-24T03:53:10;10.50;99.90
34766;DHT22;20984;43.508;1.504;2023-04-24T03:55:35;10.50;99.90
34766;DHT22;20984;43.508;1.504;2023-04-24T03:58:01;10.50;99.90
34766;DHT22;20984;43.508;1.504;2023-04-24T04:00:27;10.60;99.90
34766;DHT22;20984;43.508;1.504;2023-04-24T04:02:53;10.60;99.90
34766;DHT22;20984;43.508;1.504;2023-04-24T04:05:18;10.70;99.90
34766;DHT22;20984;43.508;1.504;2023-04-24T04:07:44;10.80;99.90
34766;DHT22;20984;43.508;1.504;2023-04-24T04:10:10;10.90;99.90
34766;DHT22;20984;43.508;1.504;2023-04-24T04:12:36;11.00;99.90
34766;DHT22;20984;43.508;1.504;2023-04-24T04:15:01;11.00;99.90
34766;DHT22;20984;43.508;1.504;2023-04-24T04:17:27;11.10;99.90
34766;DHT22;20984;43.508;1.504;2023-04-24T04:19:53;11.10;99.90
34766;DHT22;20984;43.508;1.504;2023-04-24T04:22:18;11.10;99.90
34766;DHT22;20984;43.508;1.504;2023-04-24T04:24:44;11.20;99.90
34766;DHT22;20984;43.508;1.504;2023-04-24T04:27:09;11.30;99.90
34766;DHT22;20984;43.508;1.504;2023-04-24T04:29:36;11.30;99.90
34766;DHT22;20984;43.508;1.504;2023-04-24T04:32:02;11.30;99.90
34766;DHT22;20984;43.508;1.504;2023-04-24T04:34:27;11.30;99.90
34766;DHT22;20984;43.508;1.504;2023-04-24T04:36:54;11.30;99.90
34766;DHT22;20984;43.508;1.504;2023-04-24T04:39:19;11.30;99.90
34766;DHT22;20984;43.508;1.504;2023-04-24T04:41:45;11.30;99.90
34766;DHT22;20984;43.508;1.504;2023-04-24T04:44:14;11.20;99.90
34766;DHT22;20984;43.508;1.504;2023-04-24T04:46:40;11.20;99.90
34766;DHT22;20984;43.508;1.504;2023-04-24T04:49:07;11.20;99.90
34766;DHT22;20984;43.508;1.504;2023-04-24T04:51:34;11.20;99.90
34766;DHT22;20984;43.508;1.504;2023-04-24T04:54:00;11.20;99.90
34766;DHT22;20984;43.508;1.504;2023-04-24T04:56:26;11.30;99.90
34766;DHT22;20984;43.508;1.504;2023-04-24T04:58:51;11.20;99.90
34766;DHT22;20984;43.508;1.504;2023-04-24T05:01:17;11.20;99.90
34766;DHT22;20984;43.508;1.504;2023-04-24T05:03:43;11.10;99.90
34766;DHT22;20984;43.508;1.504;2023-04-24T05:06:08;11.20;99.90
34766;DHT22;20984;43.508;1.504;2023-04-24T05:08:34;11.20;99.90
34766;DHT22;20984;43.508;1.504;2023-04-24T05:11:00;11.20;99.90
34766;DHT22;20984;43.508;1.504;2023-04-24T05:13:26;11.30;99.90
34766;DHT22;20984;43.508;1.504;2023-04-24T05:15:52;11.20;99.90
34766;DHT22;20984;43.508;1.504;2023-04-24T05:18:17;11.20;99.90
34766;DHT22;20984;43.508;1.504;2023-04-24T05:20:43;11.20;99.90
34766;DHT22;20984;43.508;1.504;2023-04-24T05:23:09;11.30;99.90
34766;DHT22;20984;43.508;1.504;2023-04-24T05:25:35;11.20;99.90
34766;DHT22;20984;43.508;1.504;2023-04-24T05:28:02;11.30;99.90
34766;DHT22;20984;43.508;1.504;2023-04-24T05:30:28;11.30;99.90
34766;DHT22;20984;43.508;1.504;2023-04-24T05:32:53;11.30;99.90
34766;DHT22;20984;43.508;1.504;2023-04-24T05:35:19;11.40;99.90
34766;DHT22;20984;43.508;1.504;2023-04-24T05:37:45;11.40;99.90
34766;DHT22;20984;43.508;1.504;2023-04-24T05:40:11;11.50;99.90
34766;DHT22;20984;43.508;1.504;2023-04-24T05:42:37;11.50;99.90
34766;DHT22;20984;43.508;1.504;2023-04-24T05:45:03;11.60;99.90
34766;DHT22;20984;43.508;1.504;2023-04-24T05:47:30;11.60;99.90
34766;DHT22;20984;43.508;1.504;2023-04-24T05:49:55;11.70;99.90
34766;DHT22;20984;43.508;1.504;2023-04-24T05:52:21;11.70;99.90
34766;DHT22;20984;43.508;1.504;2023-04-24T05:54:47;11.80;99.90
34766;DHT22;20984;43.508;1.504;2023-04-24T05:57:13;11.80;99.90
34766;DHT22;20984;43.508;1.504;2023-04-24T05:59:40;11.80;99.90
34766;DHT22;20984;43.508;1.504;2023-04-24T06:02:06;11.80;99.90
34766;DHT22;20984;43.508;1.504;2023-04-24T06:04:32;11.80;99.90
34766;DHT22;20984;43.508;1.504;2023-04-24T06:06:58;11.90;99.90
34766;DHT22;20984;43.508;1.504;2023-04-24T06:09:25;11.90;99.90
34766;DHT22;20984;43.508;1.504;2023-04-24T06:11:51;11.90;99.90
34766;DHT22;20984;43.508;1.504;2023-04-24T06:14:20;12.00;99.90
34766;DHT22;20984;43.508;1.504;2023-04-24T06:16:46;12.00;99.90
34766;DHT22;20984;43.508;1.504;2023-04-24T06:19:12;12.10;99.90
34766;DHT22;20984;43.508;1.504;2023-04-24T06:21:37;12.10;99.90
34766;DHT22;20984;43.508;1.504;2023-04-24T06:24:03;12.10;99.90
34766;DHT22;20984;43.508;1.504;2023-04-24T06:26:30;12.10;99.90
34766;DHT22;20984;43.508;1.504;2023-04-24T06:28:56;12.00;99.90
34766;DHT22;20984;43.508;1.504;2023-04-24T06:31:22;12.10;99.90
34766;DHT22;20984;43.508;1.504;2023-04-24T06:33:48;12.10;99.90
34766;DHT22;20984;43.508;1.504;2023-04-24T06:36:14;12.20;99.90
34766;DHT22;20984;43.508;1.504;2023-04-24T06:38:41;12.30;99.90
34766;DHT22;20984;43.508;1.504;2023-04-24T06:41:07;12.40;99.90
34766;DHT22;20984;43.508;1.504;2023-04-24T06:43:33;12.50;99.90
34766;DHT22;20984;43.508;1.504;2023-04-24T06:45:59;12.60;99.90
34766;DHT22;20984;43.508;1.504;2023-04-24T06:48:25;12.60;99.90
34766;DHT22;20984;43.508;1.504;2023-04-24T06:50:51;12.70;99.90
34766;DHT22;20984;43.508;1.504;2023-04-24T06:53:17;12.70;99.90
34766;DHT22;20984;43.508;1.504;2023-04-24T06:55:43;12.80;99.90
34766;DHT22;20984;43.508;1.504;2023-04-24T06:58:10;12.80;99.90
34766;DHT22;20984;43.508;1.504;2023-04-24T07:00:36;12.90;99.90
34766;DHT22;20984;43.508;1.504;2023-04-24T07:03:03;12.90;99.90
34766;DHT22;20984;43.508;1.504;2023-04-24T07:05:30;12.90;99.90
34766;DHT22;20984;43.508;1.504;2023-04-24T07:07:56;12.90;99.90
34766;DHT22;20984;43.508;1.504;2023-04-24T07:10:24;12.90;99.90
34766;DHT22;20984;43.508;1.504;2023-04-24T07:12:50;12.80;99.90
34766;DHT22;20984;43.508;1.504;2023-04-24T07:15:15;12.80;99.90
34766;DHT22;20984;43.508;1.504;2023-04-24T07:17:42;12.80;99.90
34766;DHT22;20984;43.508;1.504;2023-04-24T07:20:11;12.80;99.90
34766;DHT22;20984;43.508;1.504;2023-04-24T07:22:40;12.80;99.90
34766;DHT22;20984;43.508;1.504;2023-04-24T07:25:06;12.90;99.90
34766;DHT22;20984;43.508;1.504;2023-04-24T07:27:33;13.00;99.90
34766;DHT22;20984;43.508;1.504;2023-04-24T07:29:59;13.00;99.90
34766;DHT22;20984;43.508;1.504;2023-04-24T07:32:24;13.20;99.90
34766;DHT22;20984;43.508;1.504;2023-04-24T07:34:50;13.10;99.90
34766;DHT22;20984;43.508;1.504;2023-04-24T07:37:16;13.20;99.90
34766;DHT22;20984;43.508;1.504;2023-04-24T07:39:42;13.20;99.90
34766;DHT22;20984;43.508;1.504;2023-04-24T07:42:07;13.20;99.90
34766;DHT22;20984;43.508;1.504;2023-04-24T07:44:33;13.20;99.90
34766;DHT22;20984;43.508;1.504;2023-04-24T07:46:59;13.40;99.90
34766;DHT22;20984;43.508;1.504;2023-04-24T07:49:25;13.50;99.90
34766;DHT22;20984;43.508;1.504;2023-04-24T07:51:51;13.50;99.90
34766;DHT22;20984;43.508;1.504;2023-04-24T07:54:16;13.30;99.90
34766;DHT22;20984;43.508;1.504;2023-04-24T07:56:43;13.20;99.90
34766;DHT22;20984;43.508;1.504;2023-04-24T07:59:09;13.10;99.90
34766;DHT22;20984;43.508;1.504;2023-04-24T08:01:35;13.10;99.90
34766;DHT22;20984;43.508;1.504;2023-04-24T08:04:01;13.10;99.90
34766;DHT22;20984;43.508;1.504;2023-04-24T08:06:27;13.10;99.90
34766;DHT22;20984;43.508;1.504;2023-04-24T08:08:57;13.20;99.90
34766;DHT22;20984;43.508;1.504;2023-04-24T08:11:24;13.40;99.90
34766;DHT22;20984;43.508;1.504;2023-04-24T08:13:50;13.30;99.90
34766;DHT22;20984;43.508;1.504;2023-04-24T08:16:16;13.30;99.90
34766;DHT22;20984;43.508;1.504;2023-04-24T08:18:41;13.40;99.90
34766;DHT22;20984;43.508;1.504;2023-04-24T08:21:07;13.60;99.90
34766;DHT22;20984;43.508;1.504;2023-04-24T08:23:33;13.90;99.90
34766;DHT22;20984;43.508;1.504;2023-04-24T08:25:58;14.20;99.90
34766;DHT22;20984;43.508;1.504;2023-04-24T08:28:24;14.20;99.90
34766;DHT22;20984;43.508;1.504;2023-04-24T08:30:50;14.20;99.90
34766;DHT22;20984;43.508;1.504;2023-04-24T08:33:21;14.30;99.90
34766;DHT22;20984;43.508;1.504;2023-04-24T08:35:46;14.30;99.90
34766;DHT22;20984;43.508;1.504;2023-04-24T08:38:12;14.20;99.90
34766;DHT22;20984;43.508;1.504;2023-04-24T08:40:38;14.00;99.90
34766;DHT22;20984;43.508;1.504;2023-04-24T08:43:04;13.80;99.90
34766;DHT22;20984;43.508;1.504;2023-04-24T08:45:30;13.70;99.90
34766;DHT22;20984;43.508;1.504;2023-04-24T08:47:58;13.60;99.90
34766;DHT22;20984;43.508;1.504;2023-04-24T08:50:25;13.80;99.90
34766;DHT22;20984;43.508;1.504;2023-04-24T08:52:51;14.00;99.90
34766;DHT22;20984;43.508;1.504;2023-04-24T08:55:19;14.30;99.90
34766;DHT22;20984;43.508;1.504;2023-04-24T08:57:50;14.60;99.90
34766;DHT22;20984;43.508;1.504;2023-04-24T09:00:17;14.70;99.90
34766;DHT22;20984;43.508;1.504;2023-04-24T09:02:43;14.70;99.90
34766;DHT22;20984;43.508;1.504;2023-04-24T09:05:10;14.80;99.90
34766;DHT22;20984;43.508;1.504;2023-04-24T09:07:38;14.80;99.90
34766;DHT22;20984;43.508;1.504;2023-04-24T09:10:05;14.80;99.90
34766;DHT22;20984;43.508;1.504;2023-04-24T09:12:32;14.80;99.90
34766;DHT22;20984;43.508;1.504;2023-04-24T09:15:00;14.60;99.90
34766;DHT22;20984;43.508;1.504;2023-04-24T09:17:26;14.70;99.90
34766;DHT22;20984;43.508;1.504;2023-04-24T09:19:53;14.60;99.90
34766;DHT22;20984;43.508;1.504;2023-04-24T09:22:20;14.80;99.90
34766;DHT22;20984;43.508;1.504;2023-04-24T09:24:46;15.00;99.90
34766;DHT22;20984;43.508;1.504;2023-04-24T09:27:12;15.10;99.90
34766;DHT22;20984;43.508;1.504;2023-04-24T09:29:53;15.20;99.90
34766;DHT22;20984;43.508;1.504;2023-04-24T09:32:23;15.30;99.90
34766;DHT22;20984;43.508;1.504;2023-04-24T09:35:14;15.40;99.90
34766;DHT22;20984;43.508;1.504;2023-04-24T09:37:47;15.30;99.90
34766;DHT22;20984;43.508;1.504;2023-04-24T09:40:21;15.60;99.90
34766;DHT22;20984;43.508;1.504;2023-04-24T09:42:55;15.80;99.90
34766;DHT22;20984;43.508;1.504;2023-04-24T09:45:22;15.80;99.90
34766;DHT22;20984;43.508;1.504;2023-04-24T09:47:52;15.70;99.90
34766;DHT22;20984;43.508;1.504;2023-04-24T09:50:22;15.60;99.90
34766;DHT22;20984;43.508;1.504;2023-04-24T09:52:59;15.60;99.90
34766;DHT22;20984;43.508;1.504;2023-04-24T09:55:26;15.70;99.90
34766;DHT22;20984;43.508;1.504;2023-04-24T09:57:56;15.80;99.90
34766;DHT22;20984;43.508;1.504;2023-04-24T10:00:30;15.90;99.90
34766;DHT22;20984;43.508;1.504;2023-04-24T10:03:00;15.80;99.90
34766;DHT22;20984;43.508;1.504;2023-04-24T10:07:59;16.00;99.90
34766;DHT22;20984;43.508;1.504;2023-04-24T10:10:25;16.00;99.90
34766;DHT22;20984;43.508;1.504;2023-04-24T10:12:52;15.90;99.90
34766;DHT22;20984;43.508;1.504;2023-04-24T10:15:18;15.60;99.90
34766;DHT22;20984;43.508;1.504;2023-04-24T10:17:50;15.70;99.90
34766;DHT22;20984;43.508;1.504;2023-04-24T10:20:27;15.60;99.90
34766;DHT22;20984;43.508;1.504;2023-04-24T10:22:55;15.60;99.90
34766;DHT22;20984;43.508;1.504;2023-04-24T10:25:24;15.70;99.90
34766;DHT22;20984;43.508;1.504;2023-04-24T10:27:51;15.80;99.90
34766;DHT22;20984;43.508;1.504;2023-04-24T10:30:19;15.90;99.90
34766;DHT22;20984;43.508;1.504;2023-04-24T10:32:45;15.80;99.90
34766;DHT22;20984;43.508;1.504;2023-04-24T10:35:15;16.20;99.90
34766;DHT22;20984;43.508;1.504;2023-04-24T10:37:54;16.30;99.90
34766;DHT22;20984;43.508;1.504;2023-04-24T10:40:26;16.60;99.90
34766;DHT22;20984;43.508;1.504;2023-04-24T10:42:53;17.00;99.90
34766;DHT22;20984;43.508;1.504;2023-04-24T10:45:20;17.10;99.90
34766;DHT22;20984;43.508;1.504;2023-04-24T10:50:45;17.40;99.90
34766;DHT22;20984;43.508;1.504;2023-04-24T10:53:28;17.30;99.90
34766;DHT22;20984;43.508;1.504;2023-04-24T10:58:52;17.60;99.90
34766;DHT22;20984;43.508;1.504;2023-04-24T11:01:26;17.40;99.90
34766;DHT22;20984;43.508;1.504;2023-04-24T11:03:56;17.10;99.90
34766;DHT22;20984;43.508;1.504;2023-04-24T11:06:33;17.00;99.90
34766;DHT22;20984;43.508;1.504;2023-04-24T11:09:10;16.90;99.90
34766;DHT22;20984;43.508;1.504;2023-04-24T11:11:38;17.00;99.90
34766;DHT22;20984;43.508;1.504;2023-04-24T11:14:10;16.70;99.90
34766;DHT22;20984;43.508;1.504;2023-04-24T11:19:09;16.50;99.90
34766;DHT22;20984;43.508;1.504;2023-04-24T11:21:44;16.50;99.90
34766;DHT22;20984;43.508;1.504;2023-04-24T11:29:40;16.60;99.90
34766;DHT22;20984;43.508;1.504;2023-04-24T11:35:14;17.00;99.90
34766;DHT22;20984;43.508;1.504;2023-04-24T11:37:44;17.20;99.90
34766;DHT22;20984;43.508;1.504;2023-04-24T11:40:13;17.30;99.90
34766;DHT22;20984;43.508;1.504;2023-04-24T11:42:43;17.20;99.90
34766;DHT22;20984;43.508;1.504;2023-04-24T11:45:11;17.30;99.90
34766;DHT22;20984;43.508;1.504;2023-04-24T11:47:38;17.40;99.90
34766;DHT22;20984;43.508;1.504;2023-04-24T11:50:05;17.50;99.90
34766;DHT22;20984;43.508;1.504;2023-04-24T11:52:33;17.50;99.90
34766;DHT22;20984;43.508;1.504;2023-04-24T11:55:02;17.70;99.90
34766;DHT22;20984;43.508;1.504;2023-04-24T11:57:29;17.60;99.90
34766;DHT22;20984;43.508;1.504;2023-04-24T12:00:02;17.60;99.90
34766;DHT22;20984;43.508;1.504;2023-04-24T12:02:29;17.40;99.90
34766;DHT22;20984;43.508;1.504;2023-04-24T12:04:54;17.50;99.90
34766;DHT22;20984;43.508;1.504;2023-04-24T12:07:21;17.60;99.90
34766;DHT22;20984;43.508;1.504;2023-04-24T12:09:48;17.80;99.90
34766;DHT22;20984;43.508;1.504;2023-04-24T12:12:16;17.60;99.90
34766;DHT22;20984;43.508;1.504;2023-04-24T12:14:52;17.70;99.90
34766;DHT22;20984;43.508;1.504;2023-04-24T12:17:33;17.70;99.90
34766;DHT22;20984;43.508;1.504;2023-04-24T12:20:06;17.90;99.90
34766;DHT22;20984;43.508;1.504;2023-04-24T12:22:54;18.20;99.90
34766;DHT22;20984;43.508;1.504;2023-04-24T12:25:25;18.10;99.90
34766;DHT22;20984;43.508;1.504;2023-04-24T12:27:55;18.10;99.90
34766;DHT22;20984;43.508;1.504;2023-04-24T12:30:42;18.00;99.90
34766;DHT22;20984;43.508;1.504;2023-04-24T12:33:10;18.20;99.90
34766;DHT22;20984;43.508;1.504;2023-04-24T12:35:36;18.40;99.90
34766;DHT22;20984;43.508;1.504;2023-04-24T12:38:06;18.40;99.90
34766;DHT22;20984;43.508;1.504;2023-04-24T12:40:32;18.40;99.90
34766;DHT22;20984;43.508;1.504;2023-04-24T12:42:58;18.50;99.90
34766;DHT22;20984;43.508;1.504;2023-04-24T12:45:23;18.70;99.90
34766;DHT22;20984;43.508;1.504;2023-04-24T12:47:50;18.90;99.90
34766;DHT22;20984;43.508;1.504;2023-04-24T12:50:16;19.00;99.90
34766;DHT22;20984;43.508;1.504;2023-04-24T12:52:43;19.00;99.90
34766;DHT22;20984;43.508;1.504;2023-04-24T12:55:09;18.70;99.90
34766;DHT22;20984;43.508;1.504;2023-04-24T12:57:37;18.60;99.90
34766;DHT22;20984;43.508;1.504;2023-04-24T13:00:03;18.40;99.90
34766;DHT22;20984;43.508;1.504;2023-04-24T13:02:30;18.40;99.90
34766;DHT22;20984;43.508;1.504;2023-04-24T13:04:57;18.50;99.90
34766;DHT22;20984;43.508;1.504;2023-04-24T13:07:23;18.20;99.90
34766;DHT22;20984;43.508;1.504;2023-04-24T13:09:50;18.20;99.90
34766;DHT22;20984;43.508;1.504;2023-04-24T13:12:16;18.20;99.90
34766;DHT22;20984;43.508;1.504;2023-04-24T13:14:41;18.10;99.90
34766;DHT22;20984;43.508;1.504;2023-04-24T13:17:07;18.30;99.90
34766;DHT22;20984;43.508;1.504;2023-04-24T13:19:39;18.70;99.90
34766;DHT22;20984;43.508;1.504;2023-04-24T13:22:05;19.00;99.90
34766;DHT22;20984;43.508;1.504;2023-04-24T13:24:32;19.50;99.90
34766;DHT22;20984;43.508;1.504;2023-04-24T13:26:58;19.80;99.90
34766;DHT22;20984;43.508;1.504;2023-04-24T13:29:24;20.20;99.90
34766;DHT22;20984;43.508;1.504;2023-04-24T13:31:54;20.40;99.90
34766;DHT22;20984;43.508;1.504;2023-04-24T13:34:21;20.50;99.90
34766;DHT22;20984;43.508;1.504;2023-04-24T13:36:46;20.30;99.90
34766;DHT22;20984;43.508;1.504;2023-04-24T13:39:12;20.10;99.90
34766;DHT22;20984;43.508;1.504;2023-04-24T13:41:38;19.70;99.90
34766;DHT22;20984;43.508;1.504;2023-04-24T13:44:04;19.60;99.90
34766;DHT22;20984;43.508;1.504;2023-04-24T13:46:30;19.60;99.90
34766;DHT22;20984;43.508;1.504;2023-04-24T13:48:56;19.80;99.90
34766;DHT22;20984;43.508;1.504;2023-04-24T13:51:23;19.90;99.90
34766;DHT22;20984;43.508;1.504;2023-04-24T13:53:49;19.80;99.90
34766;DHT22;20984;43.508;1.504;2023-04-24T13:56:14;19.80;99.90
34766;DHT22;20984;43.508;1.504;2023-04-24T13:58:40;20.00;99.90
34766;DHT22;20984;43.508;1.504;2023-04-24T14:01:06;19.80;99.90
34766;DHT22;20984;43.508;1.504;2023-04-24T14:03:33;19.90;99.90
34766;DHT22;20984;43.508;1.504;2023-04-24T14:05:59;20.10;99.90
34766;DHT22;20984;43.508;1.504;2023-04-24T14:08:24;20.10;99.90
34766;DHT22;20984;43.508;1.504;2023-04-24T14:10:50;20.10;99.90
34766;DHT22;20984;43.508;1.504;2023-04-24T14:13:16;20.00;99.90
34766;DHT22;20984;43.508;1.504;2023-04-24T14:15:42;19.60;99.90
34766;DHT22;20984;43.508;1.504;2023-04-24T14:18:08;19.40;99.90
34766;DHT22;20984;43.508;1.504;2023-04-24T14:20:33;19.20;99.90
34766;DHT22;20984;43.508;1.504;2023-04-24T14:22:59;19.20;99.90
34766;DHT22;20984;43.508;1.504;2023-04-24T14:25:25;19.40;99.90
34766;DHT22;20984;43.508;1.504;2023-04-24T14:27:51;19.30;99.90
34766;DHT22;20984;43.508;1.504;2023-04-24T14:30:18;19.10;99.90
34766;DHT22;20984;43.508;1.504;2023-04-24T14:32:43;19.10;99.90
34766;DHT22;20984;43.508;1.504;2023-04-24T14:35:09;19.20;99.90
34766;DHT22;20984;43.508;1.504;2023-04-24T14:37:35;19.30;99.90
34766;DHT22;20984;43.508;1.504;2023-04-24T14:40:01;19.20;99.90
34766;DHT22;20984;43.508;1.504;2023-04-24T14:42:27;18.90;99.90
34766;DHT22;20984;43.508;1.504;2023-04-24T14:44:54;18.80;99.90
34766;DHT22;20984;43.508;1.504;2023-04-24T14:47:20;18.70;99.90
34766;DHT22;20984;43.508;1.504;2023-04-24T14:49:50;18.50;99.90
34766;DHT22;20984;43.508;1.504;2023-04-24T14:52:15;18.60;99.90
34766;DHT22;20984;43.508;1.504;2023-04-24T14:54:42;18.70;99.90
34766;DHT22;20984;43.508;1.504;2023-04-24T14:57:07;18.80;99.90
34766;DHT22;20984;43.508;1.504;2023-04-24T14:59:33;18.80;99.90
34766;DHT22;20984;43.508;1.504;2023-04-24T15:01:59;19.00;99.90
34766;DHT22;20984;43.508;1.504;2023-04-24T15:04:25;19.00;99.90
34766;DHT22;20984;43.508;1.504;2023-04-24T15:06:51;18.90;99.90
34766;DHT22;20984;43.508;1.504;2023-04-24T15:09:20;19.00;99.90
34766;DHT22;20984;43.508;1.504;2023-04-24T15:11:46;19.00;99.90
34766;DHT22;20984;43.508;1.504;2023-04-24T15:14:11;19.00;99.90
34766;DHT22;20984;43.508;1.504;2023-04-24T15:16:37;18.90;99.90
34766;DHT22;20984;43.508;1.504;2023-04-24T15:19:03;18.90;99.90
34766;DHT22;20984;43.508;1.504;2023-04-24T15:21:29;18.70;99.90
34766;DHT22;20984;43.508;1.504;2023-04-24T15:23:54;18.60;99.90
34766;DHT22;20984;43.508;1.504;2023-04-24T15:26:22;18.60;99.90
34766;DHT22;20984;43.508;1.504;2023-04-24T15:28:48;18.60;99.90
34766;DHT22;20984;43.508;1.504;2023-04-24T15:31:14;18.80;99.90
34766;DHT22;20984;43.508;1.504;2023-04-24T15:33:40;19.10;99.90
34766;DHT22;20984;43.508;1.504;2023-04-24T15:36:06;19.00;99.90
34766;DHT22;20984;43.508;1.504;2023-04-24T15:38:32;19.00;99.90
34766;DHT22;20984;43.508;1.504;2023-04-24T15:40:57;19.10;99.90
34766;DHT22;20984;43.508;1.504;2023-04-24T15:43:23;19.30;99.90
34766;DHT22;20984;43.508;1.504;2023-04-24T15:45:52;19.60;99.90
34766;DHT22;20984;43.508;1.504;2023-04-24T15:48:18;19.90;99.90